Estación Meteorológica Peña el Pijo (Robertgarden) [ 05/25/19 22:38:58 CEST ]

Fecha Hora Presion(HPa) Temp (°C) Humedad % Rocio (°C) Viento ( m/s) Direccion Lluvia 1Hora(mm) Lluvia 24H(mm) LLuvia Total(mm)
2019-May-23 01:01:36 1010.500 17.8 72 12.7         318.05
2019-May-23 02:01:34 1010.500 20.3 73 15.3         318.05
2019-May-23 03:03:10 1010.400 20.5 78 21.4         318.05
2019-May-23 04:01:53 1009.900 21.8 80 18.2         318.05
2019-May-23 05:01:44 1009.700 21.3 80 17.7         318.05
2019-May-23 06:01:48 1009.700 19.8 78 15.9         318.05
2019-May-23 07:01:41 1009.700 18.1 77 14.0         318.05
2019-May-23 08:01:43 1010.000 17.0 74 12.3         318.05
2019-May-23 09:01:44 1010.100 19.9 58 11.4         318.05
2019-May-23 10:01:38 1010.300 23.7 44 10.7         318.05
2019-May-23 11:01:35 1010.100 25.9 34 8.7         318.05
2019-May-23 12:01:22 1010.000 29.3 29 9.4         318.05
2019-May-23 13:01:35 1009.700 28.5 29 8.7         318.05
2019-May-23 14:01:47 1009.400 26.6 29 7.1         318.05
2019-May-23 15:01:46 1009.000 28.8 27 7.8         318.05
2019-May-23 16:01:49 1008.600 28.8 28 8.3         318.05
2019-May-23 17:01:38 1008.300 25.9 31 7.4         318.05
2019-May-23 18:01:41 1008.100 25.7 31 7.3         318.05
2019-May-23 19:01:58 1007.800 26.2 30 7.3         318.05
2019-May-23 20:01:56 1007.900 22.7 34 5.9         318.05
2019-May-23 21:02:01 1008.000 21.0 37 5.7         318.05
2019-May-23 22:01:54 1008.000 18.6 47 7.0         318.05
2019-May-23 23:01:51 1008.600 17.3 56 8.4         318.05

Temperatura Máxima:29°    Temperatura Mínima:17°
Presión Máxima:1010.500 Hpa    Presión Mínima:1007.800 Hpa


Volver